Time;durP1;ratioP1;P1;durP2;ratioP2;P2;SDS_P1;SDS_P2;PMS_P1;PMS_P2;Temp;Humidity;BMP_temperature;BMP_pressure;BME280_temperature;BME280_humidity;BME280_pressure;Samples;Min_cycle;Max_cycle;Signal;HPM_P1;HPM_P2
2022/11/28 00:02:06;;;;;;;48.55;12.32;;;;;;;0.01;0.00;59042.03;5100628;27;20068;-55
2022/11/28 00:04:31;;;;;;;55.47;13.43;;;;;;;0.01;0.00;59042.03;5100713;27;20023;-56
2022/11/28 00:06:57;;;;;;;44.67;12.15;;;;;;;0.01;0.00;59042.03;5099779;28;20162;-54
2022/11/28 00:09:23;;;;;;;45.97;11.90;;;;;;;0.01;0.00;59042.03;5100663;28;20550;-55
2022/11/28 00:11:49;;;;;;;43.72;12.30;;;;;;;0.01;0.00;59042.03;5099232;28;20566;-55
2022/11/28 00:14:16;;;;;;;45.50;12.00;;;;;;;0.01;0.00;59042.03;5099152;28;20027;-57
2022/11/28 00:16:42;;;;;;;38.67;11.55;;;;;;;0.01;0.00;59042.03;5099697;28;20114;-55
2022/11/28 00:19:07;;;;;;;46.78;11.82;;;;;;;0.01;0.00;59042.03;5099776;28;20111;-56
2022/11/28 00:21:34;;;;;;;44.47;11.23;;;;;;;0.01;0.00;59042.03;5099195;28;20051;-55
2022/11/28 00:24:00;;;;;;;49.58;12.45;;;;;;;0.01;0.00;59042.03;5099462;28;20039;-55
2022/11/28 00:26:31;;;;;;;40.80;11.65;;;;;;;0.01;0.00;59042.03;5099486;28;20043;-54
2022/11/28 00:28:58;;;;;;;49.63;11.27;;;;;;;0.01;0.00;59042.03;5099871;28;20035;-57
2022/11/28 00:31:26;;;;;;;39.25;10.80;;;;;;;0.01;0.00;59042.03;5098822;28;20557;-54
2022/11/28 00:33:52;;;;;;;48.70;13.43;;;;;;;0.01;0.00;59042.03;5099739;28;20097;-57
2022/11/28 00:36:18;;;;;;;43.65;13.00;;;;;;;0.01;0.00;59042.03;5099144;28;20122;-55
2022/11/28 00:38:44;;;;;;;49.67;12.25;;;;;;;0.01;0.00;59042.03;5099469;28;20444;-57
2022/11/28 00:41:15;;;;;;;48.72;12.85;;;;;;;0.01;0.00;59042.03;5080145;28;20520;-57
2022/11/28 00:43:41;;;;;;;41.63;12.38;;;;;;;0.01;0.00;59042.03;5099385;28;20031;-56
2022/11/28 00:46:07;;;;;;;57.30;13.82;;;;;;;0.01;0.00;59042.03;5098958;28;20039;-55
2022/11/28 00:48:34;;;;;;;48.17;13.05;;;;;;;0.01;0.00;59042.03;5099813;28;20028;-55
2022/11/28 00:51:20;;;;;;;48.95;13.13;;;;;;;0.01;0.00;59042.03;5098235;28;20040;-55
2022/11/28 00:53:48;;;;;;;52.78;14.00;;;;;;;0.01;0.00;59042.03;5098673;28;20440;-54
2022/11/28 00:56:18;;;;;;;52.13;13.57;;;;;;;0.01;0.00;59042.03;5098103;28;20055;-56
2022/11/28 00:58:44;;;;;;;57.97;14.73;;;;;;;0.01;0.00;59042.03;5098670;28;20673;-57
2022/11/28 01:01:17;;;;;;;51.05;13.65;;;;;;;0.01;0.00;59042.03;5098771;28;20047;-55
2022/11/28 01:03:43;;;;;;;47.67;13.13;;;;;;;0.01;0.00;59042.03;5099006;28;20546;-55
2022/11/28 01:06:11;;;;;;;50.70;12.75;;;;;;;0.01;0.00;59042.03;5097077;28;20046;-56
2022/11/28 01:08:37;;;;;;;57.33;14.48;;;;;;;0.01;0.00;59042.03;5098456;28;20023;-54
2022/11/28 01:11:03;;;;;;;51.72;14.05;;;;;;;0.01;0.00;59042.03;5098327;28;20122;-54
2022/11/28 01:13:28;;;;;;;61.08;15.50;;;;;;;0.01;0.00;59042.03;5097895;28;20027;-54
2022/11/28 01:15:54;;;;;;;52.85;13.80;;;;;;;0.01;0.00;59042.03;5098292;28;20111;-56
2022/11/28 01:18:20;;;;;;;55.85;12.93;;;;;;;0.01;0.00;59042.03;5098967;28;20527;-54
2022/11/28 01:20:45;;;;;;;51.92;13.52;;;;;;;0.01;0.00;59042.03;5097703;28;20481;-54
2022/11/28 01:23:11;;;;;;;43.42;13.30;;;;;;;0.01;0.00;59042.03;5099027;28;20130;-55
2022/11/28 01:25:36;;;;;;;46.75;12.15;;;;;;;0.01;0.00;59042.03;5097878;28;20043;-54
2022/11/28 01:28:02;;;;;;;46.33;12.88;;;;;;;0.01;0.00;59042.03;5098617;28;20032;-55
2022/11/28 01:30:27;;;;;;;44.65;12.60;;;;;;;0.01;0.00;59042.03;5079224;28;20590;-54
2022/11/28 01:32:53;;;;;;;53.92;13.18;;;;;;;0.01;0.00;59042.03;5097893;28;20031;-56
2022/11/28 01:35:18;;;;;;;42.75;11.90;;;;;;;0.01;0.00;59042.03;5098002;28;20039;-55
2022/11/28 01:37:43;;;;;;;54.83;13.40;;;;;;;0.01;0.00;59042.03;5098494;28;20023;-57
2022/11/28 01:40:10;;;;;;;41.90;11.40;;;;;;;0.01;0.00;59042.03;5097976;28;20676;-55
2022/11/28 01:42:36;;;;;;;50.22;12.48;;;;;;;0.01;0.00;59042.03;5099019;28;20027;-56
2022/11/28 01:45:23;;;;;;;52.90;13.60;;;;;;;0.01;0.00;59042.03;5098601;28;20023;-55
2022/11/28 01:47:52;;;;;;;46.90;12.20;;;;;;;0.01;0.00;59042.03;5097682;28;20817;-55
2022/11/28 01:50:20;;;;;;;47.50;12.23;;;;;;;0.01;0.00;59042.03;5097069;28;20062;-56
2022/11/28 01:52:50;;;;;;;48.30;12.55;;;;;;;0.01;0.00;59042.03;5098517;28;20063;-55
2022/11/28 01:55:22;;;;;;;50.72;12.43;;;;;;;0.01;0.00;59042.03;5097486;28;20122;-54
2022/11/28 01:57:47;;;;;;;45.50;12.05;;;;;;;0.01;0.00;59042.03;5098299;28;20015;-54
2022/11/28 02:00:16;;;;;;;53.72;13.32;;;;;;;0.01;0.00;59042.03;5097474;28;20027;-54
2022/11/28 02:02:53;;;;;;;40.92;12.50;;;;;;;0.01;0.00;59042.03;5096783;28;20038;-55
2022/11/28 02:05:20;;;;;;;43.42;11.73;;;;;;;0.01;0.00;59042.03;5096914;28;20042;-56
2022/11/28 02:07:46;;;;;;;50.17;13.32;;;;;;;0.01;0.00;59042.03;5097603;28;20035;-55
2022/11/28 02:10:17;;;;;;;49.15;12.15;;;;;;;0.01;0.00;59042.03;5096858;28;20561;-54
2022/11/28 02:13:02;;;;;;;41.95;12.00;;;;;;;0.01;0.00;59042.03;5098124;28;20058;-55
2022/11/28 02:15:27;;;;;;;44.42;11.43;;;;;;;0.01;0.00;59042.03;5097203;28;20051;-56
2022/11/28 02:18:17;;;;;;;44.28;10.57;;;;;;;0.01;0.00;59042.03;5098471;28;20023;-55
2022/11/28 02:20:54;;;;;;;49.45;11.23;;;;;;;0.01;0.00;59042.03;5097295;28;20649;-54
2022/11/28 02:23:45;;;;;;;49.92;13.27;;;;;;;0.01;0.00;59042.03;5097829;28;20650;-54
2022/11/28 02:26:20;;;;;;;43.30;11.18;;;;;;;0.01;0.00;59042.03;5096941;28;20040;-55
2022/11/28 02:28:54;;;;;;;46.05;11.75;;;;;;;0.01;0.00;59042.03;5098197;28;20392;-55
2022/11/28 02:31:28;;;;;;;42.33;11.88;;;;;;;0.01;0.00;59042.03;5096950;28;20189;-56
2022/11/28 02:33:57;;;;;;;49.53;12.68;;;;;;;0.01;0.00;59042.03;5098289;28;20055;-56
2022/11/28 02:36:50;;;;;;;39.22;10.85;;;;;;;0.01;0.00;59042.03;5097236;28;20039;-54
2022/11/28 02:39:26;;;;;;;;;;;;;;;0.01;0.00;59042.03;5095175;28;20031;-55
2022/11/28 02:42:03;;;;;;;43.55;10.77;;;;;;;0.01;0.00;59042.03;5097205;28;19961;-56
2022/11/28 02:44:51;;;;;;;42.55;11.57;;;;;;;0.01;0.00;59042.03;5100620;28;20019;-54
2022/11/28 02:47:29;;;;;;;43.55;10.18;;;;;;;0.01;0.00;59042.03;5101260;28;20043;-54
2022/11/28 02:50:09;;;;;;;47.17;12.50;;;;;;;0.01;0.00;59042.03;5101585;28;20030;-54
2022/11/28 02:52:58;;;;;;;36.92;10.65;;;;;;;0.01;0.00;59042.03;5100961;28;20050;-55
2022/11/28 02:55:24;;;;;;;51.08;12.70;;;;;;;0.01;0.00;59042.03;5098641;28;20480;-55
2022/11/28 02:57:52;;;;;;;55.40;13.98;;;;;;;0.01;0.00;59042.03;5081412;28;20015;-55
2022/11/28 03:00:27;;;;;;;47.13;12.95;;;;;;;0.01;0.00;59042.03;5082384;28;20020;-55
2022/11/28 03:03:10;;;;;;;53.47;13.52;;;;;;;0.01;0.00;59042.03;5101193;28;20355;-56
2022/11/28 03:05:55;;;;;;;46.67;12.88;;;;;;;0.01;0.00;59042.03;5097041;28;20024;-54
2022/11/28 03:08:32;;;;;;;42.83;13.00;;;;;;;0.01;0.00;59042.03;5081552;28;20031;-55
2022/11/28 03:11:19;;;;;;;54.60;13.40;;;;;;;0.01;0.00;59042.03;5079566;28;20039;-56
2022/11/28 03:14:19;;;;;;;43.88;11.90;;;;;;;0.01;0.00;59042.03;5080976;28;20059;-57
2022/11/28 03:16:54;;;;;;;46.50;13.40;;;;;;;0.01;0.00;59042.03;5080717;28;20492;-55
2022/11/28 03:19:30;;;;;;;46.92;11.77;;;;;;;0.01;0.00;59042.03;5079535;28;20584;-55
2022/11/28 03:22:39;;;;;;;49.72;14.05;;;;;;;0.01;0.00;59042.03;5079830;28;20043;-55
2022/11/28 03:25:40;;;;;;;48.33;14.38;;;;;;;0.01;0.00;59042.03;5080431;28;20031;-54
2022/11/28 03:28:18;;;;;;;50.45;12.70;;;;;;;0.01;0.00;59042.03;5077222;28;20570;-55
2022/11/28 03:30:53;;;;;;;44.50;12.45;;;;;;;0.01;0.00;59042.03;5080060;28;20040;-54
2022/11/28 03:33:22;;;;;;;55.08;13.25;;;;;;;0.01;0.00;59042.03;5080943;28;20051;-54
2022/11/28 03:35:53;;;;;;;42.60;11.45;;;;;;;0.01;0.00;59042.03;5080037;28;20109;-55
2022/11/28 03:38:27;;;;;;;48.85;12.55;;;;;;;0.01;0.00;59042.03;5078882;28;20103;-54
2022/11/28 03:40:57;;;;;;;37.85;11.20;;;;;;;0.01;0.00;59042.03;5079253;28;20036;-55
2022/11/28 03:43:33;;;;;;;52.83;13.18;;;;;;;0.01;0.00;59042.03;5080143;28;20024;-56
2022/11/28 03:46:07;;;;;;;41.78;11.43;;;;;;;0.01;0.00;59042.03;5080017;28;20043;-56
2022/11/28 03:48:40;;;;;;;43.83;11.70;;;;;;;0.01;0.00;59042.03;5080831;28;20035;-56
2022/11/28 03:51:17;;;;;;;41.67;12.02;;;;;;;0.01;0.00;59042.03;5079729;28;20581;-54
2022/11/28 03:53:51;;;;;;;40.90;12.18;;;;;;;0.01;0.00;59042.03;5080682;28;20020;-54
2022/11/28 03:56:20;;;;;;;45.50;11.82;;;;;;;0.01;0.00;59042.03;5078930;28;20089;-55
2022/11/28 03:59:02;;;;;;;46.50;12.52;;;;;;;0.01;0.00;59042.03;5080889;28;20093;-57
2022/11/28 04:01:35;;;;;;;48.90;12.52;;;;;;;0.01;0.00;59042.03;5079682;28;20105;-55
2022/11/28 04:04:08;;;;;;;39.10;11.55;;;;;;;0.01;0.00;59042.03;5079930;28;20489;-55
2022/11/28 04:06:48;;;;;;;48.20;12.23;;;;;;;0.01;0.00;59042.03;5093203;28;20073;-54
2022/11/28 04:09:18;;;;;;;46.13;12.13;;;;;;;0.01;0.00;59042.03;5100922;28;20027;-55
2022/11/28 04:11:50;;;;;;;41.38;11.15;;;;;;;0.01;0.00;59042.03;5097694;28;20405;-54
2022/11/28 04:14:30;;;;;;;43.15;10.98;;;;;;;0.01;0.00;59042.03;5100241;28;20638;-57
2022/11/28 04:17:08;;;;;;;46.60;10.48;;;;;;;0.01;0.00;59042.03;5099735;28;20027;-55
2022/11/28 04:19:49;;;;;;;38.47;11.13;;;;;;;0.01;0.00;59042.03;5100082;28;20156;-54
2022/11/28 04:22:22;;;;;;;43.85;11.35;;;;;;;0.01;0.00;59042.03;5099966;28;20442;-54
2022/11/28 04:24:52;;;;;;;42.65;11.38;;;;;;;0.01;0.00;59042.03;5100118;28;20027;-55
2022/11/28 04:27:26;;;;;;;46.58;11.52;;;;;;;0.01;0.00;59042.03;5099481;28;20063;-55
2022/11/28 04:29:56;;;;;;;50.85;11.93;;;;;;;0.01;0.00;59042.03;5099972;28;20092;-54
2022/11/28 04:32:23;;;;;;;36.88;8.55;;;;;;;0.01;0.00;59042.03;5099309;28;20131;-59
2022/11/28 04:34:58;;;;;;;42.10;9.50;;;;;;;0.01;0.00;59042.03;5081782;28;20073;-56
2022/11/28 04:37:27;;;;;;;36.10;8.90;;;;;;;0.01;0.00;59042.03;5099022;28;20071;-56
2022/11/28 04:39:55;;;;;;;47.22;10.52;;;;;;;0.01;0.00;59042.03;5099418;28;20024;-55
2022/11/28 04:42:25;;;;;;;38.25;9.75;;;;;;;0.01;0.00;59042.03;5098783;28;20035;-55
2022/11/28 04:44:56;;;;;;;38.67;9.95;;;;;;;0.01;0.00;59042.03;5099752;28;20035;-56
2022/11/28 04:47:23;;;;;;;37.38;9.00;;;;;;;0.01;0.00;59042.03;5098856;28;20047;-57
2022/11/28 04:49:48;;;;;;;45.70;10.45;;;;;;;0.01;0.00;59042.03;5099322;28;20110;-55
2022/11/28 04:52:18;;;;;;;45.22;11.20;;;;;;;0.01;0.00;59042.03;5099022;28;20988;-54
2022/11/28 04:55:05;;;;;;;37.85;9.70;;;;;;;0.01;0.00;59042.03;5099158;28;20602;-54
2022/11/28 04:57:36;;;;;;;35.38;9.15;;;;;;;0.01;0.00;59042.03;5098074;28;20130;-56
2022/11/28 05:00:06;;;;;;;32.17;9.52;;;;;;;0.01;0.00;59042.03;5098620;28;20743;-55
2022/11/28 05:02:33;;;;;;;38.70;10.07;;;;;;;0.01;0.00;59042.03;5098529;28;20059;-58
2022/11/28 05:04:59;;;;;;;40.58;10.73;;;;;;;0.01;0.00;59042.03;5098571;28;20049;-54
2022/11/28 05:07:24;;;;;;;49.72;10.25;;;;;;;0.01;0.00;59042.03;5096679;28;20038;-55
2022/11/28 05:09:50;;;;;;;46.70;9.27;;;;;;;0.01;0.00;59042.03;5097396;28;20027;-56
2022/11/28 05:12:15;;;;;;;35.28;8.00;;;;;;;0.01;0.00;59042.03;5098158;28;20131;-54
2022/11/28 05:14:41;;;;;;;38.28;9.32;;;;;;;0.01;0.00;59042.03;5098532;28;20727;-55
2022/11/28 05:17:07;;;;;;;33.50;9.05;;;;;;;0.01;0.00;59042.03;5098557;28;20081;-55
2022/11/28 05:19:32;;;;;;;44.00;10.23;;;;;;;0.01;0.00;59042.03;5098701;28;20020;-55
2022/11/28 05:21:58;;;;;;;36.60;9.70;;;;;;;0.01;0.00;59042.03;5098440;28;20512;-54
2022/11/28 05:24:23;;;;;;;42.10;9.57;;;;;;;0.01;0.00;59042.03;5098821;28;20054;-56
2022/11/28 05:26:49;;;;;;;40.63;10.00;;;;;;;0.01;0.00;59042.03;5098327;28;20062;-55
2022/11/28 05:29:14;;;;;;;38.92;10.27;;;;;;;0.01;0.00;59042.03;5099067;28;20081;-54
2022/11/28 05:31:39;;;;;;;44.30;11.60;;;;;;;0.01;0.00;59042.03;5098005;28;20046;-56
2022/11/28 05:34:05;;;;;;;34.38;11.07;;;;;;;0.01;0.00;59042.03;5098663;28;20134;-56
2022/11/28 05:36:30;;;;;;;40.28;10.15;;;;;;;0.01;0.00;59042.03;5098369;28;20541;-56
2022/11/28 05:38:56;;;;;;;48.05;11.88;;;;;;;0.01;0.00;59042.03;5098668;28;20031;-55
2022/11/28 05:41:27;;;;;;;37.28;10.68;;;;;;;0.01;0.00;59042.03;5097581;28;20042;-55
2022/11/28 05:43:53;;;;;;;44.47;11.65;;;;;;;0.01;0.00;59042.03;5098162;28;20023;-55
2022/11/28 05:46:18;;;;;;;41.47;11.90;;;;;;;0.01;0.00;59042.03;5098647;28;20385;-56
2022/11/28 05:48:44;;;;;;;46.83;11.20;;;;;;;0.01;0.00;59042.03;5097116;28;20031;-57
2022/11/28 05:51:10;;;;;;;36.55;10.55;;;;;;;0.01;0.00;59042.03;5097955;28;20314;-56
2022/11/28 05:53:36;;;;;;;43.90;12.57;;;;;;;0.01;0.00;59042.03;5098561;28;20440;-55
2022/11/28 05:56:09;;;;;;;50.42;12.60;;;;;;;0.01;0.00;59042.03;5097889;28;20035;-56
2022/11/28 05:58:35;;;;;;;45.95;12.85;;;;;;;0.01;0.00;59042.03;5098552;28;20416;-54
2022/11/28 06:01:17;;;;;;;51.45;13.20;;;;;;;0.01;0.00;59042.03;5097186;28;20051;-57
2022/11/28 06:03:42;;;;;;;48.67;15.70;;;;;;;0.01;0.00;59042.03;5098123;28;20023;-55
2022/11/28 06:06:13;;;;;;;54.05;14.02;;;;;;;0.01;0.00;59042.03;5098611;28;20035;-55
2022/11/28 06:08:39;;;;;;;51.40;15.13;;;;;;;0.01;0.00;59042.03;5098488;28;20687;-54
2022/11/28 06:11:05;;;;;;;54.80;16.38;;;;;;;0.01;0.00;59042.03;5097528;28;20376;-55
2022/11/28 06:13:30;;;;;;;53.17;15.23;;;;;;;0.01;0.00;59042.03;5098456;28;20031;-55
2022/11/28 06:15:56;;;;;;;56.58;17.42;;;;;;;0.01;0.00;59042.03;5097941;28;20682;-55
2022/11/28 06:18:21;;;;;;;53.33;14.95;;;;;;;0.01;0.00;59042.03;5097840;28;20110;-55
2022/11/28 06:20:46;;;;;;;51.03;14.75;;;;;;;0.01;0.00;59042.03;5096128;28;20039;-56
2022/11/28 06:23:12;;;;;;;58.83;16.25;;;;;;;0.01;0.00;59042.03;5097528;28;20370;-56
2022/11/28 06:25:37;;;;;;;39.50;10.80;;;;;;;0.01;0.00;59042.03;5097672;28;20507;-55
2022/11/28 06:28:02;;;;;;;43.33;13.30;;;;;;;0.01;0.00;59042.03;5098144;28;20067;-56
2022/11/28 06:30:28;;;;;;;47.97;12.43;;;;;;;0.01;0.00;59042.03;5096984;28;20895;-55
2022/11/28 06:32:53;;;;;;;39.03;8.30;;;;;;;0.01;0.00;59042.03;5097691;28;20040;-55
2022/11/28 06:35:18;;;;;;;49.05;10.93;;;;;;;0.01;0.00;59042.03;5097556;28;20042;-57
2022/11/28 06:37:44;;;;;;;43.63;11.90;;;;;;;0.01;0.00;59042.03;5097947;28;20080;-55
2022/11/28 06:40:09;;;;;;;41.78;11.15;;;;;;;0.01;0.00;59042.03;5097095;28;20194;-56
2022/11/28 06:42:35;;;;;;;47.53;12.13;;;;;;;0.01;0.00;59042.03;5098114;28;20038;-56
2022/11/28 06:45:02;;;;;;;40.25;11.10;;;;;;;0.01;0.00;59042.03;5079580;28;20032;-55
2022/11/28 06:47:27;;;;;;;49.90;12.18;;;;;;;0.01;0.00;59042.03;5097312;28;20064;-57
2022/11/28 06:49:53;;;;;;;44.95;11.88;;;;;;;0.01;0.00;59042.03;5097635;28;20508;-55
2022/11/28 06:52:18;;;;;;;44.33;11.95;;;;;;;0.01;0.00;59042.03;5096210;28;20529;-55
2022/11/28 06:54:44;;;;;;;47.45;11.02;;;;;;;0.01;0.00;59042.03;5097138;28;20114;-55
2022/11/28 06:57:09;;;;;;;38.35;10.82;;;;;;;0.01;0.00;59042.03;5096737;28;20106;-56
2022/11/28 06:59:34;;;;;;;48.65;11.88;;;;;;;0.01;0.00;59042.03;5097411;28;20527;-55
2022/11/28 07:02:02;;;;;;;44.33;11.75;;;;;;;0.01;0.00;59042.03;5096353;28;20718;-55
2022/11/28 07:04:27;;;;;;;46.75;11.77;;;;;;;0.01;0.00;59042.03;5093402;28;20038;-55
2022/11/28 07:06:52;;;;;;;32.72;8.82;;;;;;;0.01;0.00;59042.03;5094814;28;20032;-55
2022/11/28 07:09:18;;;;;;;42.35;10.77;;;;;;;0.01;0.00;59042.03;5097130;28;20019;-55
2022/11/28 07:11:43;;;;;;;43.08;10.73;;;;;;;0.01;0.00;59042.03;5095396;28;20044;-56
2022/11/28 07:14:09;;;;;;;43.97;12.80;;;;;;;0.01;0.00;59042.03;5097533;28;20730;-57
2022/11/28 07:16:35;;;;;;;36.22;10.88;;;;;;;0.01;0.00;59042.03;5097629;28;20070;-57
2022/11/28 07:19:01;;;;;;;37.40;11.55;;;;;;;0.01;0.00;59042.03;5097339;28;20054;-56
2022/11/28 07:21:27;;;;;;;40.13;12.13;;;;;;;0.01;0.00;59042.03;5096941;28;20483;-54
2022/11/28 07:23:53;;;;;;;51.45;12.10;;;;;;;0.01;0.00;59042.03;5097587;28;20324;-57
2022/11/28 07:26:20;;;;;;;49.15;10.95;;;;;;;0.01;0.00;59042.03;5097401;28;20574;-56
2022/11/28 07:28:46;;;;;;;59.60;15.50;;;;;;;0.01;0.00;59042.03;5097040;28;20073;-56
2022/11/28 07:31:19;;;;;;;46.63;13.88;;;;;;;0.01;0.00;59042.03;5098734;28;20039;-58
2022/11/28 07:33:46;;;;;;;;;;;;;;;0.01;0.00;59042.03;5101440;28;20031;-56
2022/11/28 07:36:20;;;;;;;42.03;12.38;;;;;;;0.01;0.00;59042.03;5100464;28;20340;-57
2022/11/28 07:38:47;;;;;;;42.35;12.05;;;;;;;0.01;0.00;59042.03;5100656;28;20020;-56
2022/11/28 07:41:13;;;;;;;37.50;10.77;;;;;;;0.01;0.00;59042.03;5099711;28;20696;-57
2022/11/28 07:43:41;;;;;;;44.42;11.43;;;;;;;0.01;0.00;59042.03;5100865;28;20963;-57
2022/11/28 07:46:09;;;;;;;43.90;11.27;;;;;;;0.01;0.00;59042.03;5100195;28;20043;-57
2022/11/28 07:48:34;;;;;;;39.13;12.13;;;;;;;0.01;0.00;59042.03;5100959;28;20036;-58
2022/11/28 07:51:05;;;;;;;51.17;14.27;;;;;;;0.01;0.00;59042.03;5099800;28;20047;-57
2022/11/28 07:53:31;;;;;;;43.85;11.90;;;;;;;0.01;0.00;59042.03;5099942;27;20092;-57
2022/11/28 07:56:00;;;;;;;237.07;23.25;;;;;;;0.01;0.00;59042.03;5100154;28;20828;-58
2022/11/28 07:58:26;;;;;;;39.15;10.75;;;;;;;0.01;0.00;59042.03;5100175;28;20042;-57
2022/11/28 08:00:51;;;;;;;39.90;10.25;;;;;;;0.01;0.00;59042.03;5099551;28;20039;-57
2022/11/28 08:03:16;;;;;;;48.13;11.32;;;;;;;0.01;0.00;59042.03;5100231;28;20165;-56
2022/11/28 08:05:48;;;;;;;43.97;11.15;;;;;;;0.01;0.00;59042.03;5095130;28;20612;-57
2022/11/28 08:08:13;;;;;;;38.30;11.95;;;;;;;0.01;0.00;59042.03;5080264;28;20049;-57
2022/11/28 08:10:39;;;;;;;39.85;10.13;;;;;;;0.01;0.00;59042.03;5078031;28;20040;-57
2022/11/28 08:13:04;;;;;;;36.03;9.77;;;;;;;0.01;0.00;59042.03;5078929;28;20020;-56
2022/11/28 08:15:30;;;;;;;43.78;11.05;;;;;;;0.01;0.00;59042.03;5078423;28;20610;-56
2022/11/28 08:17:56;;;;;;;33.65;9.70;;;;;;;0.01;0.00;59042.03;5080216;28;20024;-55
2022/11/28 08:20:21;;;;;;;36.53;9.95;;;;;;;0.01;0.00;59042.03;5081578;28;20108;-56
2022/11/28 08:22:47;;;;;;;43.80;10.77;;;;;;;0.01;0.00;59042.03;5099375;28;20114;-56
2022/11/28 08:25:12;;;;;;;40.30;10.82;;;;;;;0.01;0.00;59042.03;5098923;28;20488;-57
2022/11/28 08:27:37;;;;;;;42.95;11.02;;;;;;;0.01;0.00;59042.03;5099906;28;20035;-56
2022/11/28 08:30:03;;;;;;;32.63;9.90;;;;;;;0.01;0.00;59042.03;5099878;28;20045;-55
2022/11/28 08:32:29;;;;;;;32.88;8.82;;;;;;;0.01;0.00;59042.03;5077860;28;20139;-57
2022/11/28 08:34:54;;;;;;;35.50;10.10;;;;;;;0.01;0.00;59042.03;5079275;28;20031;-58
2022/11/28 08:37:20;;;;;;;36.88;10.60;;;;;;;0.01;0.00;59042.03;5079241;28;20408;-56
2022/11/28 08:39:45;;;;;;;45.42;11.88;;;;;;;0.01;0.00;59042.03;5078769;28;20024;-56
2022/11/28 08:42:10;;;;;;;37.58;10.57;;;;;;;0.01;0.00;59042.03;5095730;28;20035;-56
2022/11/28 08:44:36;;;;;;;38.60;11.52;;;;;;;0.01;0.00;59042.03;5099640;28;20072;-58
2022/11/28 08:47:01;;;;;;;40.17;11.05;;;;;;;0.01;0.00;59042.03;5082674;28;20032;-57
2022/11/28 08:49:26;;;;;;;37.60;10.95;;;;;;;0.01;0.00;59042.03;5079147;28;20024;-58
2022/11/28 08:51:52;;;;;;;41.05;11.52;;;;;;;0.01;0.00;59042.03;5077936;28;20089;-56
2022/11/28 08:54:17;;;;;;;31.67;9.48;;;;;;;0.01;0.00;59042.03;5078892;28;20032;-56
2022/11/28 08:56:45;;;;;;;34.13;10.60;;;;;;;0.01;0.00;59042.03;5078671;28;20040;-56
2022/11/28 08:59:10;;;;;;;41.90;11.07;;;;;;;0.01;0.00;59042.03;5078290;28;20024;-57
2022/11/28 09:01:35;;;;;;;33.67;9.57;;;;;;;0.01;0.00;59042.03;5077963;28;20039;-56
2022/11/28 09:04:01;;;;;;;37.42;10.35;;;;;;;0.01;0.00;59042.03;5078517;28;20021;-57
2022/11/28 09:06:26;;;;;;;32.75;10.07;;;;;;;0.01;0.00;59042.03;5079373;28;20090;-56
2022/11/28 09:08:52;;;;;;;280.30;27.73;;;;;;;0.01;0.00;59042.03;5078681;28;20032;-56
2022/11/28 09:11:20;;;;;;;36.60;8.75;;;;;;;0.01;0.00;59042.03;5087740;28;20039;-56
2022/11/28 09:13:46;;;;;;;36.28;9.73;;;;;;;0.01;0.00;59042.03;5098932;28;20028;-57
2022/11/28 09:16:11;;;;;;;35.92;8.80;;;;;;;0.01;0.00;59042.03;5098401;28;20050;-56
2022/11/28 09:18:37;;;;;;;26.38;7.93;;;;;;;0.01;0.00;59042.03;5099615;28;20027;-58
2022/11/28 09:21:08;;;;;;;34.05;9.65;;;;;;;0.01;0.00;59042.03;5098208;28;20123;-57
2022/11/28 09:23:35;;;;;;;33.83;9.52;;;;;;;0.01;0.00;59042.03;5098909;28;20110;-54
2022/11/28 09:26:00;;;;;;;40.10;9.98;;;;;;;0.01;0.00;59042.03;5090657;28;20028;-56
2022/11/28 09:28:27;;;;;;;37.17;10.80;;;;;;;0.01;0.00;59042.03;5078176;28;20024;-54
2022/11/28 09:31:03;;;;;;;30.67;9.18;;;;;;;0.01;0.00;59042.03;5077647;28;20551;-55
2022/11/28 09:33:28;;;;;;;35.45;9.52;;;;;;;0.01;0.00;59042.03;5078491;28;20024;-54
2022/11/28 09:35:54;;;;;;;54.40;11.02;;;;;;;0.01;0.00;59042.03;5078186;28;20768;-55
2022/11/28 09:38:20;;;;;;;32.67;9.32;;;;;;;0.01;0.00;59042.03;5078481;28;20031;-57
2022/11/28 09:40:46;;;;;;;31.42;8.43;;;;;;;0.01;0.00;59042.03;5077220;28;20046;-56
2022/11/28 09:43:35;;;;;;;33.95;9.05;;;;;;;0.01;0.00;59042.03;5078150;28;20031;-56
2022/11/28 09:46:04;;;;;;;33.13;9.15;;;;;;;0.01;0.00;59042.03;5077674;28;20382;-56
2022/11/28 09:48:37;;;;;;;34.55;9.45;;;;;;;0.01;0.00;59042.03;5078070;28;20027;-56
2022/11/28 09:51:32;;;;;;;28.50;8.07;;;;;;;0.01;0.00;59042.03;5077209;28;20105;-56
2022/11/28 09:54:10;;;;;;;33.17;9.05;;;;;;;0.01;0.00;59042.03;5065638;28;20078;-58
2022/11/28 09:56:35;;;;;;;60.63;12.23;;;;;;;0.01;0.00;59042.03;5076827;28;20536;-58
2022/11/28 09:59:04;;;;;;;56.47;11.68;;;;;;;0.01;0.00;59042.03;5078019;28;20756;-56
2022/11/28 10:01:44;;;;;;;30.83;8.32;;;;;;;0.01;0.00;59042.03;5077496;28;20032;-58
2022/11/28 10:04:36;;;;;;;31.08;8.23;;;;;;;0.01;0.00;59042.03;5077552;28;20032;-58
2022/11/28 10:07:35;;;;;;;29.90;9.40;;;;;;;0.01;0.00;59042.03;5092877;28;20039;-55
2022/11/28 10:10:14;;;;;;;35.65;9.30;;;;;;;0.01;0.00;59042.03;5096327;28;20374;-56
2022/11/28 10:13:04;;;;;;;33.10;8.80;;;;;;;0.01;0.00;59042.03;5077094;28;20067;-56
2022/11/28 10:15:40;;;;;;;33.60;9.77;;;;;;;0.01;0.00;59042.03;5065021;28;20040;-57
2022/11/28 10:18:28;;;;;;;31.90;9.35;;;;;;;0.01;0.00;59042.03;5077602;28;20020;-55
2022/11/28 10:21:03;;;;;;;29.90;9.02;;;;;;;0.01;0.00;59042.03;5084171;28;20036;-56
2022/11/28 10:23:39;;;;;;;29.00;8.35;;;;;;;0.01;0.00;59042.03;5097962;28;20157;-56
2022/11/28 10:26:30;;;;;;;34.25;8.68;;;;;;;0.01;0.00;59042.03;5088873;28;20036;-55
2022/11/28 10:28:59;;;;;;;23.17;6.97;;;;;;;0.01;0.00;59042.03;5076832;28;20110;-58
2022/11/28 10:31:38;;;;;;;28.27;7.78;;;;;;;0.01;0.00;59042.03;5076460;28;20044;-57
2022/11/28 10:34:23;;;;;;;26.38;8.45;;;;;;;0.01;0.00;59042.03;5077364;28;20086;-56
2022/11/28 10:37:23;;;;;;;28.52;7.85;;;;;;;0.01;0.00;59042.03;5091863;28;20654;-56
2022/11/28 10:39:49;;;;;;;27.38;7.45;;;;;;;0.01;0.00;59042.03;5097869;28;20032;-56
2022/11/28 10:42:39;;;;;;;29.83;8.05;;;;;;;0.01;0.00;59042.03;5097387;28;20044;-55
2022/11/28 10:45:26;;;;;;;25.05;7.28;;;;;;;0.01;0.00;59042.03;5097692;28;20405;-55
2022/11/28 10:48:04;;;;;;;27.08;6.97;;;;;;;0.01;0.00;59042.03;5097532;28;20039;-55
2022/11/28 10:50:48;;;;;;;28.50;7.30;;;;;;;0.01;0.00;59042.03;5096268;28;20032;-56
2022/11/28 10:53:31;;;;;;;28.10;8.00;;;;;;;0.01;0.00;59042.03;5098136;28;20028;-58
2022/11/28 10:56:02;;;;;;;24.83;7.30;;;;;;;0.01;0.00;59042.03;5097794;28;20047;-55
2022/11/28 10:58:37;;;;;;;34.63;8.88;;;;;;;0.01;0.00;59042.03;5097774;28;20031;-56
2022/11/28 11:01:02;;;;;;;76.05;11.75;;;;;;;0.01;0.00;59042.03;5097301;28;20542;-58
2022/11/28 11:03:31;;;;;;;30.38;9.23;;;;;;;0.01;0.00;59042.03;5097481;28;20116;-56
2022/11/28 11:05:57;;;;;;;31.08;8.40;;;;;;;0.01;0.00;59042.03;5099439;28;21057;-56
2022/11/28 11:08:27;;;;;;;29.85;8.10;;;;;;;0.01;0.00;59042.03;5101841;28;20634;-55
2022/11/28 11:11:01;;;;;;;56.67;9.18;;;;;;;0.01;0.00;59042.03;5100974;28;20044;-56
2022/11/28 11:13:29;;;;;;;44.25;9.50;;;;;;;0.01;0.00;59042.03;5101779;28;20028;-56
2022/11/28 11:16:04;;;;;;;35.85;9.40;;;;;;;0.01;0.00;59042.03;5081740;28;20059;-57
2022/11/28 11:18:33;;;;;;;30.48;8.13;;;;;;;0.01;0.00;59042.03;5101633;28;20023;-56
2022/11/28 11:21:17;;;;;;;30.05;9.20;;;;;;;0.01;0.00;59042.03;5100053;28;20067;-56
2022/11/28 11:23:44;;;;;;;97.70;10.43;;;;;;;0.01;0.00;59042.03;5100865;28;20134;-56
2022/11/28 11:26:26;;;;;;;28.92;8.30;;;;;;;0.01;0.00;59042.03;5100356;28;20415;-55
2022/11/28 11:28:51;;;;;;;32.55;8.85;;;;;;;0.01;0.00;59042.03;5100942;28;20276;-58
2022/11/28 11:31:26;;;;;;;25.42;7.93;;;;;;;0.01;0.00;59042.03;5100579;28;20142;-57
2022/11/28 11:34:01;;;;;;;39.53;10.50;;;;;;;0.01;0.00;59042.03;5100834;28;20114;-58
2022/11/28 11:36:30;;;;;;;31.63;9.07;;;;;;;0.01;0.00;59042.03;5100142;28;20027;-56
2022/11/28 11:39:11;;;;;;;32.88;9.27;;;;;;;0.01;0.00;59042.03;5100679;28;20088;-57
2022/11/28 11:41:42;;;;;;;37.28;10.02;;;;;;;0.01;0.00;59042.03;5099877;28;20555;-55
2022/11/28 11:44:13;;;;;;;47.03;11.05;;;;;;;0.01;0.00;59042.03;5100111;28;20023;-57
2022/11/28 11:46:51;;;;;;;51.38;11.38;;;;;;;0.01;0.00;59042.03;5100186;28;20035;-56
2022/11/28 11:49:30;;;;;;;47.58;9.93;;;;;;;0.01;0.00;59042.03;5100737;28;20023;-55
2022/11/28 11:52:13;;;;;;;27.80;8.80;;;;;;;0.01;0.00;59042.03;5100552;28;20580;-56
2022/11/28 11:55:15;;;;;;;31.48;9.00;;;;;;;0.01;0.00;59042.03;5101024;28;20092;-55